createdAt,value
2016-08-20T00:00:11.576Z,50.67
2016-08-20T00:01:10.879Z,51.03
2016-08-20T00:02:10.884Z,50.35
2016-08-20T00:03:11.658Z,50.48
2016-08-20T00:04:10.897Z,51.25
2016-08-20T00:05:11.611Z,50.93
2016-08-20T00:06:11.616Z,50.93
2016-08-20T00:07:10.919Z,51.13
2016-08-20T00:08:10.924Z,50.93
2016-08-20T00:09:11.636Z,51.06
2016-08-20T00:10:11.644Z,51.13
2016-08-20T00:11:10.942Z,51.03
2016-08-20T00:12:11.708Z,51.03
2016-08-20T00:13:10.955Z,50.84
2016-08-20T00:14:11.266Z,50.67
2016-08-20T00:15:11.679Z,50.65
2016-08-20T00:16:11.682Z,50.26
2016-08-20T00:17:10.983Z,49.97
2016-08-20T00:18:11.695Z,49.77
2016-08-20T00:19:11.701Z,50.16
2016-08-20T00:20:11.710Z,49.99
2016-08-20T00:21:11.007Z,49.49
2016-08-20T00:22:11.016Z,50.18
2016-08-20T00:23:11.734Z,50.35
2016-08-20T00:24:11.743Z,50.18
2016-08-20T00:25:11.037Z,50.07
2016-08-20T00:26:11.749Z,49.97
2016-08-20T00:27:11.051Z,50.26
2016-08-20T00:28:11.764Z,50.07
2016-08-20T00:29:11.777Z,50.09
2016-08-20T00:30:11.079Z,50.09
2016-08-20T00:31:11.782Z,50.07
2016-08-20T00:32:11.088Z,50.28
2016-08-20T00:33:11.245Z,50.07
2016-08-20T00:34:11.806Z,49.58
2016-08-20T00:35:11.102Z,50.07
2016-08-20T00:36:12.547Z,49.8
2016-08-20T00:37:11.120Z,50.38
2016-08-20T00:38:12.234Z,49.9
2016-08-20T00:39:11.849Z,49.68
2016-08-20T00:40:11.849Z,50.18
2016-08-20T00:41:11.850Z,50.18
2016-08-20T00:42:11.860Z,50.35
2016-08-20T00:43:11.925Z,49.87
2016-08-20T00:44:11.878Z,49.97
2016-08-20T00:45:11.177Z,49.97
2016-08-20T00:46:11.887Z,50.07
2016-08-20T00:47:12.138Z,49.97
2016-08-20T00:48:11.899Z,50.55
2016-08-20T00:49:11.906Z,50.55
2016-08-20T00:50:11.209Z,49.87
2016-08-20T00:51:11.922Z,50.35
2016-08-20T00:52:11.927Z,50.26
2016-08-20T00:53:11.277Z,50.48
2016-08-20T00:54:11.231Z,50.45
2016-08-20T00:55:11.948Z,49.97
2016-08-20T00:56:12.005Z,50.09
2016-08-20T00:57:11.961Z,50.09
2016-08-20T00:58:12.320Z,49.77
2016-08-20T00:59:11.978Z,50.09
2016-08-20T01:00:11.277Z,50.55
2016-08-20T01:01:11.983Z,49.97
2016-08-20T01:02:11.286Z,49.87
2016-08-20T01:03:11.998Z,49.97
2016-08-20T01:04:12.005Z,49.77
2016-08-20T01:05:12.021Z,49.87
2016-08-20T01:06:11.312Z,50.16
2016-08-20T01:07:12.027Z,50.26
2016-08-20T01:08:12.039Z,49.97
2016-08-20T01:09:12.037Z,50.07
2016-08-20T01:10:12.046Z,49.97
2016-08-20T01:11:11.343Z,49.68
2016-08-20T01:12:12.069Z,49.99
2016-08-20T01:13:12.065Z,50.16
2016-08-20T01:14:12.072Z,50.26
2016-08-20T01:15:11.372Z,50.07
2016-08-20T01:16:12.084Z,49.68
2016-08-20T01:17:12.092Z,49.68
2016-08-20T01:18:12.108Z,50.07
2016-08-20T01:19:12.103Z,50.07
2016-08-20T01:20:11.406Z,49.77
2016-08-20T01:21:12.119Z,49.87
2016-08-20T01:22:13.185Z,49.41
2016-08-20T01:23:12.132Z,49.87
2016-08-20T01:24:11.432Z,49.97
2016-08-20T01:25:11.439Z,49.58
2016-08-20T01:26:11.450Z,49.97
2016-08-20T01:27:12.159Z,49.87
2016-08-20T01:28:11.460Z,49.97
2016-08-20T01:29:12.175Z,50.18
2016-08-20T01:30:11.476Z,50.16
2016-08-20T01:31:13.287Z,49.97
2016-08-20T01:32:11.488Z,50.16
2016-08-20T01:33:12.950Z,49.87
2016-08-20T01:34:12.207Z,50.26
2016-08-20T01:35:12.215Z,50.07
2016-08-20T01:36:12.220Z,50.26
2016-08-20T01:37:12.230Z,49.97
2016-08-20T01:38:12.239Z,50.26
2016-08-20T01:39:11.534Z,49.97
2016-08-20T01:40:12.247Z,49.97
2016-08-20T01:41:11.548Z,50.07
2016-08-20T01:42:12.962Z,50.35
2016-08-20T01:43:11.561Z,49.77
2016-08-20T01:44:11.769Z,50.35
2016-08-20T01:45:11.575Z,49.77
2016-08-20T01:46:12.437Z,50.74
2016-08-20T01:47:11.591Z,50.55
2016-08-20T01:48:12.303Z,50.26
2016-08-20T01:49:11.602Z,50.26
2016-08-20T01:50:11.610Z,50.26
2016-08-20T01:51:12.322Z,49.97
2016-08-20T01:52:11.623Z,49.87
2016-08-20T01:53:12.642Z,49.77
2016-08-20T01:54:11.638Z,49.97
2016-08-20T01:55:12.350Z,49.77
2016-08-20T01:56:11.799Z,50.55
2016-08-20T01:57:12.366Z,50.65
2016-08-20T01:58:12.382Z,50.16
2016-08-20T01:59:12.375Z,50.74
2016-08-20T02:00:12.384Z,49.87
2016-08-20T02:01:11.684Z,50.07
2016-08-20T02:02:12.401Z,50.35
2016-08-20T02:03:12.403Z,49.97
2016-08-20T02:04:12.424Z,50.16
2016-08-20T02:05:12.419Z,49.87
2016-08-20T02:06:12.477Z,49.68
2016-08-20T02:07:11.742Z,50.55
2016-08-20T02:08:12.438Z,49.87
2016-08-20T02:09:12.445Z,50.07
2016-08-20T02:10:12.452Z,49.97
2016-08-20T02:11:11.751Z,49.97
2016-08-20T02:12:12.476Z,49.58
2016-08-20T02:13:11.773Z,49.58
2016-08-20T02:14:12.495Z,50.16
2016-08-20T02:15:12.231Z,49.68
2016-08-20T02:16:11.785Z,50.16
2016-08-20T02:17:12.500Z,49.58
2016-08-20T02:18:12.508Z,50.07
2016-08-20T02:19:12.516Z,49.97
2016-08-20T02:20:12.524Z,49.87
2016-08-20T02:21:12.527Z,50.26
2016-08-20T02:22:12.538Z,49.87
2016-08-20T02:23:12.546Z,49.97
2016-08-20T02:24:11.843Z,49.58
2016-08-20T02:25:11.851Z,50.65
2016-08-20T02:26:12.563Z,50.16
2016-08-20T02:27:12.575Z,50.16
2016-08-20T02:28:12.577Z,49.97
2016-08-20T02:29:11.876Z,50.55
2016-08-20T02:30:12.594Z,50.26
2016-08-20T02:31:12.597Z,50.16
2016-08-20T02:32:12.610Z,49.58
2016-08-20T02:33:12.613Z,50.07
2016-08-20T02:34:12.619Z,50.07
2016-08-20T02:35:11.922Z,50.55
2016-08-20T02:36:12.633Z,49.87
2016-08-20T02:37:12.640Z,50.16
2016-08-20T02:38:12.655Z,50.26
2016-08-20T02:39:11.947Z,49.97
2016-08-20T02:40:12.661Z,50.26
2016-08-20T02:41:11.970Z,49.97
2016-08-20T02:42:12.677Z,50.35
2016-08-20T02:43:12.687Z,50.26
2016-08-20T02:44:26.860Z,49.97
2016-08-20T02:45:12.698Z,50.16
2016-08-20T02:46:12.707Z,50.07
2016-08-20T02:47:12.713Z,50.26
2016-08-20T02:48:12.723Z,49.97
2016-08-20T02:49:12.073Z,50.35
2016-08-20T02:50:12.074Z,49.68
2016-08-20T02:51:12.736Z,50.26
2016-08-20T02:52:12.746Z,49.97
2016-08-20T02:53:12.758Z,50.07
2016-08-20T02:54:12.057Z,50.16
2016-08-20T02:55:12.766Z,49.87
2016-08-20T02:56:12.772Z,49.68
2016-08-20T02:57:12.073Z,49.97
2016-08-20T02:58:12.837Z,50.26
2016-08-20T02:59:13.769Z,50.16
2016-08-20T03:00:12.093Z,50.26
2016-08-20T03:01:13.755Z,50.16
2016-08-20T03:02:12.813Z,50.65
2016-08-20T03:03:12.113Z,49.97
2016-08-20T03:04:12.828Z,49.97
2016-08-20T03:05:12.127Z,50.55
2016-08-20T03:06:12.138Z,50.16
2016-08-20T03:07:12.142Z,50.07
2016-08-20T03:08:12.851Z,50.16
2016-08-20T03:09:12.152Z,50.07
2016-08-20T03:10:13.581Z,50.07
2016-08-20T03:11:12.926Z,50.07
2016-08-20T03:12:13.282Z,49.97
2016-08-20T03:13:12.888Z,49.87
2016-08-20T03:14:12.896Z,50.55
2016-08-20T03:15:12.196Z,50.26
2016-08-20T03:16:12.200Z,49.87
2016-08-20T03:17:12.918Z,49.49
2016-08-20T03:18:12.222Z,50.35
2016-08-20T03:19:12.928Z,50.07
2016-08-20T03:20:12.229Z,49.97
2016-08-20T03:21:12.236Z,49.87
2016-08-20T03:22:12.950Z,50.45
2016-08-20T03:23:13.151Z,49.97
2016-08-20T03:24:12.965Z,50.65
2016-08-20T03:25:12.971Z,51.03
2016-08-20T03:26:12.976Z,50.16
2016-08-20T03:27:12.282Z,49.97
2016-08-20T03:28:12.286Z,50.16
2016-08-20T03:29:12.998Z,50.74
2016-08-20T03:30:13.023Z,49.97
2016-08-20T03:31:13.012Z,49.97
2016-08-20T03:32:12.327Z,50.07
2016-08-20T03:33:13.026Z,50.16
2016-08-20T03:34:13.226Z,50.07
2016-08-20T03:35:13.041Z,49.77
2016-08-20T03:36:12.340Z,50.26
2016-08-20T03:37:12.347Z,50.35
2016-08-20T03:38:13.060Z,50.16
2016-08-20T03:39:13.119Z,50.35
2016-08-20T03:40:12.373Z,49.68
2016-08-20T03:41:13.082Z,50.55
2016-08-20T03:42:12.382Z,49.87
2016-08-20T03:43:13.951Z,49.97
2016-08-20T03:44:12.394Z,49.87
2016-08-20T03:45:13.111Z,49.77
2016-08-20T03:46:13.117Z,49.97
2016-08-20T03:47:13.124Z,49.87
2016-08-20T03:48:13.131Z,50.07
2016-08-20T03:49:12.427Z,50.35
2016-08-20T03:50:12.437Z,50.16
2016-08-20T03:51:12.444Z,50.07
2016-08-20T03:52:13.174Z,50.07
2016-08-20T03:53:12.457Z,49.97
2016-08-20T03:54:13.418Z,49.97
2016-08-20T03:55:12.476Z,49.97
2016-08-20T03:56:13.079Z,50.35
2016-08-20T03:57:13.194Z,50.16
2016-08-20T03:58:12.494Z,50.07
2016-08-20T03:59:12.496Z,49.97
2016-08-20T04:00:12.527Z,49.77
2016-08-20T04:01:12.527Z,50.07
2016-08-20T04:02:13.228Z,49.97
2016-08-20T04:03:12.530Z,50.07
2016-08-20T04:04:12.536Z,49.77
2016-08-20T04:05:13.445Z,50.45
2016-08-20T04:06:13.258Z,49.97
2016-08-20T04:07:13.156Z,49.97
2016-08-20T04:08:12.563Z,49.97
2016-08-20T04:09:12.571Z,50.07
2016-08-20T04:10:12.579Z,50.07
2016-08-20T04:11:12.589Z,49.97
2016-08-20T04:12:12.593Z,50.26
2016-08-20T04:13:13.319Z,49.87
2016-08-20T04:14:13.363Z,50.07
2016-08-20T04:15:13.317Z,50.07
2016-08-20T04:16:14.378Z,50.16
2016-08-20T04:17:12.628Z,50.26
2016-08-20T04:18:13.339Z,49.97
2016-08-20T04:19:12.641Z,50.16
2016-08-20T04:20:13.354Z,49.97
2016-08-20T04:21:13.360Z,49.87
2016-08-20T04:22:13.370Z,50.16
2016-08-20T04:23:13.376Z,49.77
2016-08-20T04:24:13.382Z,50.16
2016-08-20T04:25:13.399Z,50.07
2016-08-20T04:26:12.689Z,50.65
2016-08-20T04:27:13.696Z,50.74
2016-08-20T04:28:12.704Z,50.26
2016-08-20T04:29:13.359Z,50.16
2016-08-20T04:30:12.719Z,50.16
2016-08-20T04:31:12.732Z,50.35
2016-08-20T04:32:12.732Z,50.65
2016-08-20T04:33:12.738Z,50.74
2016-08-20T04:34:13.450Z,50.16
2016-08-20T04:35:12.752Z,49.87
2016-08-20T04:36:13.464Z,50.26
2016-08-20T04:37:12.765Z,50.26
2016-08-20T04:38:13.839Z,50.26
2016-08-20T04:39:13.487Z,49.87
2016-08-20T04:40:13.492Z,50.35
2016-08-20T04:41:13.501Z,50.45
2016-08-20T04:42:12.798Z,50.16
2016-08-20T04:43:12.807Z,49.87
2016-08-20T04:44:12.813Z,49.97
2016-08-20T04:45:12.819Z,50.07
2016-08-20T04:46:13.537Z,50.26
2016-08-20T04:47:13.541Z,49.97
2016-08-20T04:48:13.549Z,49.97
2016-08-20T04:49:14.306Z,50.07
2016-08-20T04:50:13.561Z,49.97
2016-08-20T04:51:13.569Z,49.77
2016-08-20T04:52:13.584Z,49.77
2016-08-20T04:53:13.584Z,49.97
2016-08-20T04:54:13.589Z,49.97
2016-08-20T04:55:13.603Z,50.45
2016-08-20T04:56:13.614Z,49.97
2016-08-20T04:57:13.611Z,50.07
2016-08-20T04:58:13.617Z,50.35
2016-08-20T04:59:13.625Z,50.35
2016-08-20T05:00:14.281Z,49.97
2016-08-20T05:01:12.933Z,50.35
2016-08-20T05:02:13.646Z,50.07
2016-08-20T05:03:12.946Z,49.97
2016-08-20T05:04:12.955Z,49.97
2016-08-20T05:05:13.665Z,50.35
2016-08-20T05:06:12.966Z,50.07
2016-08-20T05:07:13.681Z,50.26
2016-08-20T05:08:12.980Z,50.07
2016-08-20T05:09:13.740Z,50.26
2016-08-20T05:10:13.701Z,49.77
2016-08-20T05:11:13.402Z,50.16
2016-08-20T05:12:13.715Z,49.97
2016-08-20T05:13:13.722Z,50.07
2016-08-20T05:14:13.735Z,50.16
2016-08-20T05:15:13.079Z,50.16
2016-08-20T05:16:13.743Z,49.97
2016-08-20T05:17:13.748Z,50.26
2016-08-20T05:18:13.050Z,50.07
2016-08-20T05:19:13.056Z,50.26
2016-08-20T05:20:13.777Z,49.68
2016-08-20T05:21:13.070Z,49.87
2016-08-20T05:22:13.833Z,49.49
2016-08-20T05:23:13.792Z,49.58
2016-08-20T05:24:14.780Z,49.97
2016-08-20T05:25:13.805Z,49.68
2016-08-20T05:26:14.515Z,49.77
2016-08-20T05:27:13.112Z,49.87
2016-08-20T05:28:13.826Z,49.97
2016-08-20T05:29:13.834Z,50.35
2016-08-20T05:30:13.133Z,49.77
2016-08-20T05:31:13.846Z,49.87
2016-08-20T05:32:13.862Z,49.99
2016-08-20T05:33:13.252Z,49.87
2016-08-20T05:34:13.164Z,50.55
2016-08-20T05:35:14.851Z,50.74
2016-08-20T05:36:13.883Z,50.26
2016-08-20T05:37:14.591Z,49.97
2016-08-20T05:38:13.192Z,50.07
2016-08-20T05:39:13.198Z,50.16
2016-08-20T05:40:13.911Z,50.07
2016-08-20T05:41:13.214Z,49.97
2016-08-20T05:42:13.926Z,51.23
2016-08-20T05:43:13.931Z,50.74
2016-08-20T05:44:13.939Z,50.65
2016-08-20T05:45:13.237Z,51.03
2016-08-20T05:46:13.246Z,50.74
2016-08-20T05:47:13.252Z,50.35
2016-08-20T05:48:14.616Z,49.87
2016-08-20T05:49:13.265Z,50.07
2016-08-20T05:50:13.279Z,49.77
2016-08-20T05:51:13.989Z,49.87
2016-08-20T05:52:13.994Z,49.68
2016-08-20T05:53:13.294Z,49.68
2016-08-20T05:54:13.309Z,50.35
2016-08-20T05:55:13.358Z,49.68
2016-08-20T05:56:14.027Z,50.38
2016-08-20T05:57:14.746Z,49.68
2016-08-20T05:58:14.043Z,49.68
2016-08-20T05:59:14.441Z,49.68
2016-08-20T06:00:13.345Z,49.68
2016-08-20T06:01:13.352Z,49.77
2016-08-20T06:02:14.115Z,50.16
2016-08-20T06:03:14.078Z,49.68
2016-08-20T06:04:14.080Z,49.68
2016-08-20T06:05:14.086Z,49.97
2016-08-20T06:06:13.386Z,50.16
2016-08-20T06:07:13.393Z,49.87
2016-08-20T06:08:13.403Z,50.26
2016-08-20T06:09:13.406Z,50.26
2016-08-20T06:10:14.366Z,49.6
2016-08-20T06:11:14.124Z,50.07
2016-08-20T06:12:14.135Z,49.8
2016-08-20T06:13:13.433Z,50.07
2016-08-20T06:14:14.155Z,50.28
2016-08-20T06:15:14.209Z,50.65
2016-08-20T06:16:14.172Z,49.97
2016-08-20T06:17:13.476Z,49.97
2016-08-20T06:18:14.180Z,50.26
2016-08-20T06:19:14.639Z,50.26
2016-08-20T06:20:13.488Z,50.26
2016-08-20T06:21:14.495Z,49.99
2016-08-20T06:22:13.498Z,49.8
2016-08-20T06:23:14.216Z,50.16
2016-08-20T06:24:14.234Z,50.09
2016-08-20T06:25:14.226Z,49.87
2016-08-20T06:26:14.246Z,49.7
2016-08-20T06:27:13.536Z,50.35
2016-08-20T06:28:14.250Z,50.26
2016-08-20T06:29:13.550Z,50.26
2016-08-20T06:30:13.561Z,49.7
2016-08-20T06:31:14.273Z,50.07
2016-08-20T06:32:14.666Z,49.9
2016-08-20T06:33:13.583Z,49.77
2016-08-20T06:34:14.292Z,49.7
2016-08-20T06:35:14.307Z,50.35
2016-08-20T06:36:13.600Z,50.26
2016-08-20T06:37:14.316Z,50.26
2016-08-20T06:38:14.328Z,49.87
2016-08-20T06:39:14.587Z,50.07
2016-08-20T06:40:13.631Z,50.18
2016-08-20T06:41:13.636Z,51.15
2016-08-20T06:42:14.354Z,50.65
2016-08-20T06:43:14.817Z,51.23
2016-08-20T06:44:14.365Z,50.35
2016-08-20T06:45:13.666Z,50.35
2016-08-20T06:46:13.679Z,50.65
2016-08-20T06:47:14.385Z,50.07
2016-08-20T06:48:13.686Z,50.07
2016-08-20T06:49:13.694Z,50.07
2016-08-20T06:50:13.699Z,49.99
2016-08-20T06:51:14.414Z,50.16
2016-08-20T06:52:14.879Z,51.23
2016-08-20T06:53:14.427Z,51.13
2016-08-20T06:54:14.581Z,49.77
2016-08-20T06:55:14.443Z,50.55
2016-08-20T06:56:13.747Z,50.93
2016-08-20T06:57:13.750Z,50.93
2016-08-20T06:58:14.466Z,50.96
2016-08-20T06:59:13.763Z,49.97
2016-08-20T07:00:13.769Z,51.23
2016-08-20T07:01:13.780Z,50.16
2016-08-20T07:02:14.490Z,49.97
2016-08-20T07:03:15.647Z,50.65
2016-08-20T07:04:14.561Z,50.74
2016-08-20T07:05:14.506Z,50.55
2016-08-20T07:06:14.523Z,50.07
2016-08-20T07:07:14.524Z,50.65
2016-08-20T07:08:14.530Z,50.26
2016-08-20T07:09:13.829Z,50.55
2016-08-20T07:10:14.545Z,50.84
2016-08-20T07:11:13.847Z,50.84
2016-08-20T07:12:14.561Z,50.65
2016-08-20T07:13:14.568Z,49.87
2016-08-20T07:14:14.977Z,49.97
2016-08-20T07:15:14.585Z,50.65
2016-08-20T07:16:14.838Z,50.16
2016-08-20T07:17:14.593Z,49.97
2016-08-20T07:18:14.615Z,49.87
2016-08-20T07:19:13.904Z,49.87
2016-08-20T07:20:13.908Z,50.35
2016-08-20T07:21:13.916Z,50.18
2016-08-20T07:22:14.631Z,49.97
2016-08-20T07:23:13.939Z,49.97
2016-08-20T07:24:14.643Z,50.96
2016-08-20T07:25:15.046Z,50.76
2016-08-20T07:26:14.658Z,49.97
2016-08-20T07:27:14.658Z,50.35
2016-08-20T07:28:13.963Z,50.93
2016-08-20T07:29:13.973Z,50.16
2016-08-20T07:30:14.687Z,50.26
2016-08-20T07:31:13.985Z,50.35
2016-08-20T07:32:15.004Z,50.18
2016-08-20T07:33:14.001Z,50.74
2016-08-20T07:34:14.713Z,50.16
2016-08-20T07:35:14.721Z,50.16
2016-08-20T07:36:15.831Z,49.97
2016-08-20T07:37:14.026Z,50.09
2016-08-20T07:38:14.793Z,50.09
2016-08-20T07:39:14.043Z,51.03
2016-08-20T07:40:14.758Z,50.65
2016-08-20T07:41:14.059Z,50.93
2016-08-20T07:42:14.770Z,51.03
2016-08-20T07:43:14.779Z,50.16
2016-08-20T07:44:14.784Z,50.55
2016-08-20T07:45:14.086Z,50.55
2016-08-20T07:46:14.799Z,50.57
2016-08-20T07:47:15.913Z,49.97
2016-08-20T07:48:14.864Z,50.26
2016-08-20T07:49:14.921Z,50.35
2016-08-20T07:50:14.122Z,50.96
2016-08-20T07:51:14.129Z,50.55
2016-08-20T07:52:14.133Z,50.74
2016-08-20T07:53:14.140Z,51.13
2016-08-20T07:54:14.149Z,51.25
2016-08-20T07:55:14.864Z,50.57
2016-08-20T07:56:14.869Z,50.65
2016-08-20T07:57:14.173Z,51.03
2016-08-20T07:58:15.897Z,51.42
2016-08-20T07:59:14.891Z,50.65
2016-08-20T08:00:14.907Z,51.42
2016-08-20T08:01:14.956Z,51.03
2016-08-20T08:02:14.913Z,50.55
2016-08-20T08:03:14.919Z,50.65
2016-08-20T08:04:14.924Z,50.65
2016-08-20T08:05:14.934Z,51.35
2016-08-20T08:06:14.285Z,51.42
2016-08-20T08:07:14.946Z,50.84
2016-08-20T08:08:14.956Z,50.74
2016-08-20T08:09:15.918Z,50.76
2016-08-20T08:10:14.262Z,51.25
2016-08-20T08:11:14.817Z,51.23
2016-08-20T08:12:14.978Z,51.51
2016-08-20T08:13:14.989Z,51.51
2016-08-20T08:14:14.288Z,51.13
2016-08-20T08:15:15.003Z,51.13
2016-08-20T08:16:14.304Z,51.23
2016-08-20T08:17:14.311Z,50.86
2016-08-20T08:18:14.326Z,50.65
2016-08-20T08:19:14.324Z,51.64
2016-08-20T08:20:15.888Z,50.93
2016-08-20T08:21:15.045Z,50.93
2016-08-20T08:22:15.052Z,51.03
2016-08-20T08:23:15.057Z,51.23
2016-08-20T08:24:14.358Z,50.93
2016-08-20T08:25:15.074Z,51.61
2016-08-20T08:26:15.086Z,51.03
2016-08-20T08:27:15.087Z,51.44
2016-08-20T08:28:15.093Z,50.84
2016-08-20T08:29:14.395Z,51.23
2016-08-20T08:30:14.405Z,52.09
2016-08-20T08:31:16.018Z,50.84
2016-08-20T08:32:15.137Z,50.84
2016-08-20T08:33:14.868Z,50.67
2016-08-20T08:34:15.133Z,50.84
2016-08-20T08:35:15.141Z,50.67
2016-08-20T08:36:15.203Z,51.13
2016-08-20T08:37:14.447Z,50.35
2016-08-20T08:38:15.163Z,50.18
2016-08-20T08:39:15.170Z,50.76
2016-08-20T08:40:14.471Z,50.57
2016-08-20T08:41:14.476Z,50.48
2016-08-20T08:42:15.436Z,49.99
2016-08-20T08:43:14.491Z,49.99
2016-08-20T08:44:15.208Z,50.57
2016-08-20T08:45:14.555Z,50.28
2016-08-20T08:46:15.223Z,49.99
2016-08-20T08:47:15.227Z,50.18
2016-08-20T08:48:15.233Z,50.28
2016-08-20T08:49:14.534Z,49.99
2016-08-20T08:50:15.251Z,50.28
2016-08-20T08:51:14.550Z,50.86
2016-08-20T08:52:15.264Z,50.28
2016-08-20T08:53:16.173Z,49.99
2016-08-20T08:54:15.279Z,50.28
2016-08-20T08:55:15.287Z,50.09
2016-08-20T08:56:14.584Z,50.09
2016-08-20T08:57:15.313Z,50.38
2016-08-20T08:58:14.600Z,50.18
2016-08-20T08:59:15.315Z,50.76
2016-08-20T09:00:14.616Z,50.28
2016-08-20T09:01:15.331Z,50.57
2016-08-20T09:02:14.680Z,51.73
2016-08-20T09:03:15.346Z,51.44
2016-08-20T09:04:16.203Z,50.67
2016-08-20T09:05:14.657Z,50.86
2016-08-20T09:06:15.208Z,50.28
2016-08-20T09:07:15.373Z,50.28
2016-08-20T09:08:15.401Z,50.76
2016-08-20T09:09:14.682Z,51.35
2016-08-20T09:10:15.395Z,50.76
2016-08-20T09:11:15.401Z,50.76
2016-08-20T09:12:15.411Z,50.76
2016-08-20T09:13:15.416Z,49.99
2016-08-20T09:14:15.422Z,49.99
2016-08-20T09:15:16.183Z,51.44
2016-08-20T09:16:15.438Z,51.44
2016-08-20T09:17:15.443Z,50.86
2016-08-20T09:18:14.749Z,50.38
2016-08-20T09:19:15.463Z,50.67
2016-08-20T09:20:14.759Z,50.28
2016-08-20T09:21:14.766Z,50.67
2016-08-20T09:22:15.487Z,50.09
2016-08-20T09:23:14.779Z,50.28
2016-08-20T09:24:15.497Z,51.44
2016-08-20T09:25:15.503Z,51.35
2016-08-20T09:26:15.505Z,51.35
2016-08-20T09:27:15.518Z,51.35
2016-08-20T09:28:15.521Z,51.54
2016-08-20T09:29:15.530Z,51.25
2016-08-20T09:30:14.829Z,50.18
2016-08-20T09:31:14.837Z,50.18
2016-08-20T09:32:14.845Z,49.99
2016-08-20T09:33:14.860Z,50.28
2016-08-20T09:34:14.859Z,50.09
2016-08-20T09:35:15.575Z,49.99
2016-08-20T09:36:15.582Z,49.99
2016-08-20T09:37:16.240Z,50.18
2016-08-20T09:38:15.597Z,50.38
2016-08-20T09:39:15.620Z,50.18
2016-08-20T09:40:14.903Z,49.82
2016-08-20T09:41:14.911Z,49.9
2016-08-20T09:42:14.919Z,50.76
2016-08-20T09:43:15.642Z,50.12
2016-08-20T09:44:15.642Z,49.99
2016-08-20T09:45:15.647Z,50.12
2016-08-20T09:46:15.652Z,49.6
2016-08-20T09:47:15.663Z,49.92
2016-08-20T09:48:16.169Z,49.8
2016-08-20T09:49:15.676Z,49.92
2016-08-20T09:50:15.685Z,49.82
2016-08-20T09:51:15.695Z,49.51
2016-08-20T09:52:15.699Z,50.09
2016-08-20T09:53:15.707Z,49.92
2016-08-20T09:54:15.715Z,50.02
2016-08-20T09:55:15.723Z,49.73
2016-08-20T09:56:15.022Z,49.54
2016-08-20T09:57:15.028Z,49.82
2016-08-20T09:58:15.745Z,49.73
2016-08-20T09:59:16.258Z,50.02
2016-08-20T10:00:15.051Z,49.44
2016-08-20T10:01:15.767Z,49.82
2016-08-20T10:02:15.067Z,49.44
2016-08-20T10:03:15.783Z,49.24
2016-08-20T10:04:15.082Z,49.44
2016-08-20T10:05:15.088Z,49.63
2016-08-20T10:06:15.803Z,49.73
2016-08-20T10:07:15.811Z,49.54
2016-08-20T10:08:15.818Z,49.44
2016-08-20T10:09:15.169Z,49.73
2016-08-20T10:10:15.629Z,50.21
2016-08-20T10:11:15.185Z,49.34
2016-08-20T10:12:15.194Z,49.63
2016-08-20T10:13:15.858Z,49.54
2016-08-20T10:14:15.866Z,49.54
2016-08-20T10:15:15.873Z,49.34
2016-08-20T10:16:15.879Z,49.44
2016-08-20T10:17:15.182Z,49.82
2016-08-20T10:18:15.894Z,49.44
2016-08-20T10:19:15.196Z,49.73
2016-08-20T10:20:15.205Z,49.63
2016-08-20T10:21:15.512Z,49.63
2016-08-20T10:22:15.928Z,49.73
2016-08-20T10:23:15.376Z,49.82
2016-08-20T10:24:15.950Z,49.44
2016-08-20T10:25:15.949Z,49.54
2016-08-20T10:26:15.250Z,49.63
2016-08-20T10:27:15.963Z,49.44
2016-08-20T10:28:15.263Z,49.63
2016-08-20T10:29:15.979Z,49.54
2016-08-20T10:30:15.986Z,49.63
2016-08-20T10:31:15.287Z,49.54
2016-08-20T10:32:15.695Z,49.63
2016-08-20T10:33:15.303Z,49.82
2016-08-20T10:34:15.358Z,49.54
2016-08-20T10:35:16.024Z,49.44
2016-08-20T10:36:15.326Z,49.34
2016-08-20T10:37:15.332Z,49.34
2016-08-20T10:38:16.057Z,49.44
2016-08-20T10:39:15.346Z,49.82
2016-08-20T10:40:15.356Z,49.63
2016-08-20T10:41:16.070Z,49.82
2016-08-20T10:42:15.372Z,49.82
2016-08-20T10:43:15.829Z,49.63
2016-08-20T10:44:15.390Z,49.63
2016-08-20T10:45:15.491Z,49.63
2016-08-20T10:46:15.399Z,49.54
2016-08-20T10:47:16.112Z,49.54
2016-08-20T10:48:16.123Z,49.44
2016-08-20T10:49:16.131Z,49.63
2016-08-20T10:50:16.137Z,49.54
2016-08-20T10:51:16.146Z,49.54
2016-08-20T10:52:16.153Z,49.44
2016-08-20T10:53:15.460Z,49.54
2016-08-20T10:54:16.567Z,49.73
2016-08-20T10:55:16.178Z,49.34
2016-08-20T10:56:15.474Z,49.34
2016-08-20T10:57:15.484Z,49.82
2016-08-20T10:58:15.491Z,49.73
2016-08-20T10:59:16.203Z,49.54
2016-08-20T11:00:15.506Z,49.63
2016-08-20T11:01:16.217Z,49.54
2016-08-20T11:02:16.228Z,49.34
2016-08-20T11:03:16.233Z,49.54
2016-08-20T11:04:16.240Z,49.73
2016-08-20T11:05:16.649Z,49.44
2016-08-20T11:06:16.256Z,49.73
2016-08-20T11:07:16.261Z,49.44
2016-08-20T11:08:16.272Z,49.63
2016-08-20T11:09:16.278Z,49.63
2016-08-20T11:10:16.287Z,49.82
2016-08-20T11:11:16.295Z,49.73
2016-08-20T11:12:16.353Z,49.54
2016-08-20T11:13:15.606Z,49.73
2016-08-20T11:14:15.608Z,49.73
2016-08-20T11:15:16.321Z,49.44
2016-08-20T11:16:15.975Z,49.24
2016-08-20T11:17:16.337Z,49.82
2016-08-20T11:18:16.343Z,49.82
2016-08-20T11:19:16.350Z,49.24
2016-08-20T11:20:15.658Z,49.92
2016-08-20T11:21:16.419Z,49.44
2016-08-20T11:22:16.374Z,49.82
2016-08-20T11:23:16.382Z,49.34
2016-08-20T11:24:15.684Z,49.54
2016-08-20T11:25:16.398Z,49.34
2016-08-20T11:26:16.462Z,49.44
2016-08-20T11:27:17.321Z,50.02
2016-08-20T11:28:15.715Z,49.24
2016-08-20T11:29:16.272Z,49.15
2016-08-20T11:30:16.435Z,49.44
2016-08-20T11:31:15.738Z,49.44
2016-08-20T11:32:15.743Z,48.86
2016-08-20T11:33:16.457Z,48.86
2016-08-20T11:34:15.759Z,49.05
2016-08-20T11:35:15.765Z,49.34
2016-08-20T11:36:16.481Z,49.05
2016-08-20T11:37:15.790Z,49.05
2016-08-20T11:38:16.593Z,49.05
2016-08-20T11:39:15.799Z,49.44
2016-08-20T11:40:16.156Z,48.86
2016-08-20T11:41:15.812Z,48.95
2016-08-20T11:42:15.818Z,49.24
2016-08-20T11:43:15.825Z,48.95
2016-08-20T11:44:16.544Z,49.63
2016-08-20T11:45:16.547Z,49.05
2016-08-20T11:46:15.847Z,49.05
2016-08-20T11:47:16.561Z,49.34
2016-08-20T11:48:16.571Z,48.95
2016-08-20T11:49:16.871Z,48.86
2016-08-20T11:50:16.583Z,49.24
2016-08-20T11:51:16.385Z,48.95
2016-08-20T11:52:16.647Z,48.95
2016-08-20T11:53:15.913Z,49.15
2016-08-20T11:54:15.906Z,48.95
2016-08-20T11:55:16.623Z,48.95
2016-08-20T11:56:16.629Z,48.95
2016-08-20T11:57:16.636Z,49.63
2016-08-20T11:58:16.643Z,49.05
2016-08-20T11:59:15.993Z,49.15
2016-08-20T12:00:17.355Z,49.15
2016-08-20T12:01:16.666Z,49.05
2016-08-20T12:02:17.074Z,49.15
2016-08-20T12:03:16.682Z,49.05
2016-08-20T12:04:16.688Z,48.95
2016-08-20T12:05:15.988Z,49.05
2016-08-20T12:06:16.703Z,49.54
2016-08-20T12:07:16.711Z,49.15
2016-08-20T12:08:16.012Z,49.15
2016-08-20T12:09:16.726Z,49.15
2016-08-20T12:10:16.732Z,48.95
2016-08-20T12:11:16.032Z,48.95
2016-08-20T12:12:16.040Z,49.54
2016-08-20T12:13:16.049Z,48.95
2016-08-20T12:14:16.061Z,49.54
2016-08-20T12:15:16.771Z,49.24
2016-08-20T12:16:16.779Z,49.05
2016-08-20T12:17:16.782Z,48.95
2016-08-20T12:18:16.793Z,49.05
2016-08-20T12:19:16.095Z,49.24
2016-08-20T12:20:16.809Z,49.24
2016-08-20T12:21:16.818Z,48.86
2016-08-20T12:22:16.117Z,48.86
2016-08-20T12:23:16.123Z,48.86
2016-08-20T12:24:16.131Z,48.86
2016-08-20T12:25:16.844Z,48.95
2016-08-20T12:26:16.144Z,48.95
2016-08-20T12:27:16.861Z,49.05
2016-08-20T12:28:16.158Z,49.15
2016-08-20T12:29:16.166Z,49.73
2016-08-20T12:30:16.174Z,48.86
2016-08-20T12:31:16.182Z,48.76
2016-08-20T12:32:16.188Z,48.66
2016-08-20T12:33:17.665Z,49.82
2016-08-20T12:34:16.200Z,49.15
2016-08-20T12:35:17.361Z,48.66
2016-08-20T12:36:16.218Z,48.57
2016-08-20T12:37:16.933Z,49.05
2016-08-20T12:38:16.938Z,49.05
2016-08-20T12:39:16.947Z,48.66
2016-08-20T12:40:16.952Z,48.86
2016-08-20T12:41:16.965Z,48.95
2016-08-20T12:42:16.969Z,48.95
2016-08-20T12:43:16.271Z,48.76
2016-08-20T12:44:16.276Z,49.24
2016-08-20T12:45:16.994Z,49.15
2016-08-20T12:46:17.410Z,48.37
2016-08-20T12:47:17.003Z,48.37
2016-08-20T12:48:17.014Z,48.27
2016-08-20T12:49:17.017Z,48.57
2016-08-20T12:50:16.370Z,48.76
2016-08-20T12:51:17.036Z,48.57
2016-08-20T12:52:17.042Z,48.57
2016-08-20T12:53:16.340Z,48.47